Terminal Aerodrome Forecast
Issued by NWS Greer, SC

Current Version | Previous Version | Text Only | Print | Product List | Glossary On
Versions: 1 2 3 4 5 6 7 8 9 10 11 12 13 14 15 16 17 18 19 20 21 22 23 24 25 26 27 28 29 30 31 32 33 34 35 36
000
FTUS42 KGSP 012335
TAFAVL
TAF
KAVL 012335Z 0200/0224 19003KT P6SM SCT050
     FM020600 00000KT P6SM SCT250
     FM020800 00000KT 5SM BR BKN012
      TEMPO 0210/0212 1SM BR BKN003
     FM021400 34003KT P6SM SCT050
     FM022000 34006KT P6SM BKN050 PROB30 0220/0224 4SM TSRA
      BKN040CB=

USA.gov is the U.S. government's official web portal to all federal, state and local government web resources and services.